createdAt,value
2018-11-20T00:00:05.246Z,6.90
2018-11-20T00:02:52.265Z,6.90
2018-11-20T00:05:33.936Z,6.90
2018-11-20T00:08:22.125Z,6.60
2018-11-20T00:11:22.107Z,6.60
2018-11-20T00:14:07.144Z,6.60
2018-11-20T00:16:54.477Z,6.50
2018-11-20T00:19:41.115Z,6.50
2018-11-20T00:22:29.263Z,6.40
2018-11-20T00:25:16.325Z,6.60
2018-11-20T00:28:02.927Z,6.60
2018-11-20T00:30:51.094Z,6.40
2018-11-20T00:33:39.247Z,6.40
2018-11-20T00:36:26.056Z,6.40
2018-11-20T00:39:16.082Z,6.40
2018-11-20T00:41:55.187Z,6.20
2018-11-20T00:44:41.870Z,6.10
2018-11-20T00:47:34.074Z,6.00
2018-11-20T00:50:31.153Z,6.00
2018-11-20T00:53:21.733Z,6.00
2018-11-20T00:56:35.871Z,5.90
2018-11-20T00:59:27.302Z,5.80
2018-11-20T01:02:05.397Z,5.90
2018-11-20T01:04:52.757Z,6.00
2018-11-20T01:07:49.706Z,6.00
2018-11-20T01:10:33.545Z,6.00
2018-11-20T01:13:20.075Z,5.80
2018-11-20T01:16:01.822Z,5.60
2018-11-20T01:18:48.663Z,5.40
2018-11-20T01:21:35.464Z,5.40
2018-11-20T01:24:15.356Z,5.50
2018-11-20T01:26:57.974Z,5.40
2018-11-20T01:29:55.855Z,5.50
2018-11-20T01:32:43.768Z,5.60
2018-11-20T01:35:41.055Z,5.70
2018-11-20T01:38:34.857Z,5.60
2018-11-20T01:41:18.953Z,5.60
2018-11-20T01:44:04.888Z,5.60
2018-11-20T01:46:42.883Z,5.60
2018-11-20T01:49:46.729Z,5.70
2018-11-20T01:52:32.345Z,5.80
2018-11-20T01:55:29.499Z,5.60
2018-11-20T01:58:08.707Z,5.50
2018-11-20T02:01:00.638Z,5.40
2018-11-20T02:03:51.744Z,5.30
2018-11-20T02:06:48.744Z,5.20
2018-11-20T02:09:35.320Z,5.70
2018-11-20T02:12:26.251Z,5.70
2018-11-20T02:15:26.227Z,5.60
2018-11-20T02:18:17.959Z,5.50
2018-11-20T02:21:07.821Z,5.60
2018-11-20T02:23:49.553Z,5.60
2018-11-20T02:26:29.657Z,5.70
2018-11-20T02:29:16.531Z,5.70
2018-11-20T02:31:57.672Z,5.70
2018-11-20T02:34:44.615Z,5.60
2018-11-20T02:37:39.796Z,5.50
2018-11-20T02:40:42.921Z,5.50
2018-11-20T02:43:29.594Z,5.70
2018-11-20T02:46:16.271Z,5.70
2018-11-20T02:48:57.651Z,5.80
2018-11-20T02:51:45.031Z,5.80
2018-11-20T02:54:38.807Z,5.80
2018-11-20T02:57:39.152Z,5.90
2018-11-20T03:00:30.980Z,5.90
2018-11-20T03:03:31.362Z,5.80
2018-11-20T03:06:25.383Z,5.80
2018-11-20T03:09:10.917Z,5.90
2018-11-20T03:11:57.737Z,5.80
2018-11-20T03:14:44.300Z,5.90
2018-11-20T03:17:22.677Z,5.90
2018-11-20T03:20:11.597Z,5.90
2018-11-20T03:23:02.380Z,6.00
2018-11-20T03:26:07.182Z,6.00
2018-11-20T03:29:17.407Z,6.10
2018-11-20T03:32:04.043Z,6.10
2018-11-20T03:34:58.395Z,6.20
2018-11-20T03:37:45.187Z,6.30
2018-11-20T03:40:24.508Z,6.20
2018-11-20T03:43:11.534Z,6.00
2018-11-20T03:45:48.784Z,6.00
2018-11-20T03:48:39.521Z,6.10
2018-11-20T03:51:25.352Z,6.30
2018-11-20T03:54:12.399Z,6.40
2018-11-20T03:56:59.482Z,6.40
2018-11-20T03:59:53.469Z,6.40
2018-11-20T04:02:56.939Z,6.40
2018-11-20T04:05:41.900Z,6.20
2018-11-20T04:08:38.751Z,6.10
2018-11-20T04:11:26.954Z,6.00
2018-11-20T04:14:30.099Z,6.00
2018-11-20T04:17:21.640Z,5.90
2018-11-20T04:20:15.671Z,6.00
2018-11-20T04:23:04.578Z,6.10
2018-11-20T04:25:51.222Z,6.10
2018-11-20T04:28:26.990Z,6.10
2018-11-20T04:31:59.262Z,6.30
2018-11-20T04:35:02.274Z,6.40
2018-11-20T04:37:48.996Z,6.40
2018-11-20T04:40:42.865Z,6.20
2018-11-20T04:43:29.745Z,6.10
2018-11-20T04:46:26.747Z,5.90
2018-11-20T04:49:20.150Z,5.90
2018-11-20T04:52:11.336Z,6.00
2018-11-20T04:54:58.146Z,6.00
2018-11-20T04:57:39.212Z,6.20
2018-11-20T05:00:30.344Z,6.20
2018-11-20T05:03:24.789Z,6.20
2018-11-20T05:06:12.149Z,6.30
2018-11-20T05:09:06.987Z,6.30
2018-11-20T05:11:47.263Z,6.10
2018-11-20T05:14:34.122Z,6.00
2018-11-20T05:17:15.127Z,6.00
2018-11-20T05:20:02.237Z,5.90
2018-11-20T05:22:53.242Z,6.00
2018-11-20T05:25:40.271Z,6.10
2018-11-20T05:28:20.950Z,5.90
2018-11-20T05:31:21.652Z,6.10
2018-11-20T05:34:02.908Z,6.10
2018-11-20T05:36:49.502Z,6.00
2018-11-20T05:39:34.604Z,5.90
2018-11-20T05:42:20.093Z,5.70
2018-11-20T05:45:20.140Z,5.60
2018-11-20T05:48:23.901Z,5.90
2018-11-20T05:51:14.646Z,6.10
2018-11-20T05:54:02.287Z,6.10
2018-11-20T05:56:51.418Z,6.00
2018-11-20T05:59:57.566Z,5.90
2018-11-20T06:02:48.838Z,5.80
2018-11-20T06:05:35.712Z,6.00
2018-11-20T06:08:22.366Z,5.90
2018-11-20T06:11:09.387Z,5.90
2018-11-20T06:13:57.594Z,5.80
2018-11-20T06:16:46.172Z,5.90
2018-11-20T06:19:40.702Z,5.80
2018-11-20T06:22:30.181Z,5.90
2018-11-20T06:25:06.343Z,5.70
2018-11-20T06:27:53.238Z,5.70
2018-11-20T06:30:40.248Z,5.70
2018-11-20T06:33:37.256Z,5.90
2018-11-20T06:36:40.590Z,5.90
2018-11-20T06:39:29.828Z,5.80
2018-11-20T06:42:18.004Z,5.70
2018-11-20T06:45:04.881Z,5.70
2018-11-20T06:48:01.916Z,5.80
2018-11-20T06:50:48.934Z,5.90
2018-11-20T06:53:26.238Z,5.70
2018-11-20T06:56:13.198Z,5.70
2018-11-20T06:58:50.937Z,5.70
2018-11-20T07:01:34.770Z,5.70
2018-11-20T07:04:22.981Z,5.70
2018-11-20T07:07:16.995Z,5.80
2018-11-20T07:10:00.406Z,5.70
2018-11-20T07:12:59.779Z,5.70
2018-11-20T07:15:56.870Z,5.80
2018-11-20T07:18:43.343Z,6.00
2018-11-20T07:21:20.761Z,6.00
2018-11-20T07:24:08.089Z,6.00
2018-11-20T07:27:02.062Z,5.90
2018-11-20T07:30:02.236Z,5.90
2018-11-20T07:32:42.191Z,5.90
2018-11-20T07:35:30.363Z,5.80
2018-11-20T07:38:28.267Z,5.90
2018-11-20T07:41:12.886Z,6.00
2018-11-20T07:44:03.940Z,5.90
2018-11-20T07:46:50.519Z,6.00
2018-11-20T07:49:41.637Z,5.80
2018-11-20T07:52:28.534Z,5.70
2018-11-20T07:58:35.031Z,5.70
2018-11-20T08:01:23.200Z,5.70
2018-11-20T08:04:10.645Z,5.80
2018-11-20T08:07:14.047Z,5.80
2018-11-20T08:09:52.763Z,5.80
2018-11-20T08:12:30.743Z,6.00
2018-11-20T08:15:14.096Z,6.00
2018-11-20T08:17:52.503Z,6.00
2018-11-20T08:20:49.496Z,5.90
2018-11-20T08:23:37.128Z,5.80
2018-11-20T08:26:24.038Z,5.70
2018-11-20T08:29:17.783Z,5.70
2018-11-20T08:32:11.371Z,5.60
2018-11-20T08:35:04.047Z,5.50
2018-11-20T08:37:50.557Z,5.60
2018-11-20T08:40:37.793Z,5.50
2018-11-20T08:43:26.616Z,5.50
2018-11-20T08:46:12.931Z,5.70
2018-11-20T08:48:59.883Z,5.70
2018-11-20T08:51:38.890Z,5.80
2018-11-20T08:54:25.392Z,5.90
2018-11-20T08:57:12.632Z,6.00
2018-11-20T08:59:59.884Z,5.90
2018-11-20T09:02:53.976Z,5.80
2018-11-20T09:05:42.736Z,5.90
2018-11-20T09:08:23.723Z,5.80
2018-11-20T09:11:20.697Z,5.70
2018-11-20T09:14:07.518Z,5.70
2018-11-20T09:16:52.040Z,5.60
2018-11-20T09:19:42.785Z,5.70
2018-11-20T09:22:49.216Z,5.80
2018-11-20T09:25:36.515Z,5.80
2018-11-20T09:28:19.743Z,5.90
2018-11-20T09:31:02.454Z,6.00
2018-11-20T09:34:00.501Z,6.00
2018-11-20T09:36:47.556Z,6.10
2018-11-20T09:39:39.464Z,6.10
2018-11-20T09:42:39.166Z,5.90
2018-11-20T09:45:50.051Z,5.90
2018-11-20T09:48:40.187Z,5.90
2018-11-20T09:51:26.360Z,5.90
2018-11-20T09:54:17.929Z,6.00
2018-11-20T09:57:24.524Z,6.10
2018-11-20T10:00:18.887Z,6.10
2018-11-20T10:03:28.361Z,6.10
2018-11-20T10:06:14.491Z,6.20
2018-11-20T10:09:07.653Z,6.30
2018-11-20T10:11:49.125Z,6.20
2018-11-20T10:14:35.373Z,6.30
2018-11-20T10:17:25.613Z,6.20
2018-11-20T10:20:31.261Z,6.10
2018-11-20T10:23:38.626Z,6.10
2018-11-20T10:26:28.113Z,6.10
2018-11-20T10:29:21.375Z,6.00
2018-11-20T10:32:10.115Z,6.10
2018-11-20T10:34:47.230Z,6.30
2018-11-20T10:37:46.729Z,6.30
2018-11-20T10:40:49.216Z,6.30
2018-11-20T10:43:35.204Z,6.40
2018-11-20T10:46:21.614Z,6.30
2018-11-20T10:49:07.530Z,6.30
2018-11-20T10:51:54.986Z,6.40
2018-11-20T10:54:39.168Z,6.40
2018-11-20T10:57:26.655Z,6.50
2018-11-20T11:00:26.212Z,6.50
2018-11-20T11:03:12.943Z,6.50
2018-11-20T11:06:18.722Z,6.50
2018-11-20T11:09:06.119Z,6.50
2018-11-20T11:12:07.499Z,6.50
2018-11-20T11:15:00.999Z,6.80
2018-11-20T11:17:48.353Z,6.80
2018-11-20T11:20:38.826Z,6.60
2018-11-20T11:23:17.406Z,6.40
2018-11-20T11:26:04.811Z,6.10
2018-11-20T11:28:39.857Z,6.00
2018-11-20T11:31:42.341Z,6.10
2018-11-20T11:34:44.619Z,6.40
2018-11-20T11:37:31.098Z,6.50
2018-11-20T11:40:34.158Z,6.50
2018-11-20T11:43:16.611Z,6.50
2018-11-20T11:46:10.028Z,6.60
2018-11-20T11:49:15.789Z,6.50
2018-11-20T11:51:53.410Z,6.50
2018-11-20T11:54:40.147Z,6.30
2018-11-20T11:57:29.871Z,6.40
2018-11-20T12:00:05.773Z,6.40
2018-11-20T12:05:45.158Z,6.40
2018-11-20T12:08:31.296Z,6.30
2018-11-20T12:11:25.002Z,6.30
2018-11-20T12:14:03.933Z,6.30
2018-11-20T12:16:50.305Z,6.30
2018-11-20T12:19:40.156Z,6.30
2018-11-20T12:22:36.587Z,6.30
2018-11-20T12:25:23.321Z,6.20
2018-11-20T12:28:09.645Z,6.20
2018-11-20T12:30:55.544Z,6.20
2018-11-20T12:33:45.265Z,6.30
2018-11-20T12:36:38.653Z,6.50
2018-11-20T12:39:35.243Z,6.50
2018-11-20T12:42:16.565Z,6.40
2018-11-20T12:45:06.479Z,6.20
2018-11-20T12:48:03.875Z,6.20
2018-11-20T12:50:48.791Z,6.20
2018-11-20T12:53:41.825Z,6.10
2018-11-20T12:56:34.296Z,6.10
2018-11-20T12:59:20.375Z,6.10
2018-11-20T13:02:08.104Z,6.10
2018-11-20T13:04:55.156Z,6.10
2018-11-20T13:07:38.090Z,6.00
2018-11-20T13:10:35.049Z,6.00
2018-11-20T13:13:20.885Z,6.10
2018-11-20T13:16:00.765Z,6.10
2018-11-20T13:18:53.916Z,6.00
2018-11-20T13:21:25.493Z,5.90
2018-11-20T13:24:11.730Z,5.90
2018-11-20T13:26:54.977Z,5.90
2018-11-20T13:29:49.507Z,5.80
2018-11-20T13:32:52.279Z,5.80
2018-11-20T13:35:39.639Z,5.90
2018-11-20T13:38:35.832Z,6.00
2018-11-20T13:41:48.808Z,6.00
2018-11-20T13:44:35.487Z,6.10
2018-11-20T13:47:41.062Z,6.10
2018-11-20T13:50:27.670Z,6.10
2018-11-20T13:53:15.805Z,6.40
2018-11-20T13:56:15.297Z,6.20
2018-11-20T13:59:08.303Z,6.10
2018-11-20T14:02:10.831Z,6.00
2018-11-20T14:05:11.021Z,6.00
2018-11-20T14:07:57.099Z,6.10
2018-11-20T14:10:38.266Z,6.20
2018-11-20T14:13:15.186Z,6.50
2018-11-20T14:16:00.937Z,6.50
2018-11-20T14:19:06.657Z,6.40
2018-11-20T14:21:57.064Z,6.50
2018-11-20T14:24:47.267Z,6.40
2018-11-20T14:27:38.023Z,6.30
2018-11-20T14:30:25.026Z,6.40
2018-11-20T14:33:12.385Z,6.30
2018-11-20T14:36:09.164Z,6.30
2018-11-20T14:38:56.720Z,6.30
2018-11-20T14:41:42.362Z,6.40
2018-11-20T14:44:29.751Z,6.40
2018-11-20T14:47:15.756Z,6.50
2018-11-20T14:49:59.630Z,6.70
2018-11-20T14:52:41.922Z,6.50
2018-11-20T14:55:41.374Z,6.50
2018-11-20T14:58:27.243Z,6.30
2018-11-20T15:01:13.122Z,6.20
2018-11-20T15:03:50.957Z,6.30
2018-11-20T15:06:47.173Z,6.40
2018-11-20T15:09:34.533Z,6.50
2018-11-20T15:12:38.660Z,6.40
2018-11-20T15:15:27.917Z,6.40
2018-11-20T15:18:14.038Z,6.40
2018-11-20T15:21:07.327Z,6.20
2018-11-20T15:23:57.230Z,6.30
2018-11-20T15:26:56.338Z,6.10
2018-11-20T15:29:32.008Z,6.00
2018-11-20T15:32:28.203Z,5.90
2018-11-20T15:35:05.532Z,5.80
2018-11-20T15:38:10.918Z,5.60
2018-11-20T15:40:46.179Z,5.70
2018-11-20T15:43:42.673Z,5.60
2018-11-20T15:46:39.424Z,5.50
2018-11-20T15:49:25.438Z,5.50
2018-11-20T15:52:04.761Z,5.60
2018-11-20T15:54:50.739Z,5.50
2018-11-20T15:57:45.930Z,5.60
2018-11-20T16:00:35.007Z,5.60
2018-11-20T16:03:28.816Z,5.40
2018-11-20T16:06:16.909Z,5.30
2018-11-20T16:09:13.545Z,5.20
2018-11-20T16:11:48.093Z,5.20
2018-11-20T16:14:36.640Z,5.20
2018-11-20T16:17:22.893Z,5.20
2018-11-20T16:20:16.609Z,5.30
2018-11-20T16:23:01.396Z,5.00
2018-11-20T16:25:50.342Z,4.90
2018-11-20T16:28:39.290Z,4.90
2018-11-20T16:31:28.777Z,4.90
2018-11-20T16:34:15.050Z,4.90
2018-11-20T16:37:06.982Z,4.90
2018-11-20T16:39:56.902Z,4.80
2018-11-20T16:42:53.207Z,4.70
2018-11-20T16:45:39.112Z,4.50
2018-11-20T16:48:16.513Z,4.50
2018-11-20T16:50:53.378Z,4.60
2018-11-20T16:53:50.024Z,4.60
2018-11-20T16:56:39.934Z,4.70
2018-11-20T16:59:39.829Z,4.60
2018-11-20T17:02:32.320Z,4.60
2018-11-20T17:05:23.493Z,4.70
2018-11-20T17:08:15.454Z,4.50
2018-11-20T17:10:55.337Z,4.50
2018-11-20T17:13:36.523Z,4.30
2018-11-20T17:16:27.292Z,4.20
2018-11-20T17:19:30.331Z,4.10
2018-11-20T17:22:16.614Z,4.10
2018-11-20T17:25:23.457Z,4.20
2018-11-20T17:28:27.834Z,4.30
2018-11-20T17:31:17.004Z,4.40
2018-11-20T17:33:56.495Z,4.30
2018-11-20T17:36:51.423Z,4.40
2018-11-20T17:39:55.374Z,4.40
2018-11-20T17:42:46.321Z,4.40
2018-11-20T17:45:33.134Z,4.40
2018-11-20T17:48:15.167Z,4.40
2018-11-20T17:51:01.410Z,4.40
2018-11-20T17:53:54.327Z,4.40
2018-11-20T17:56:49.583Z,4.50
2018-11-20T17:59:47.558Z,4.50
2018-11-20T18:02:30.669Z,4.40
2018-11-20T18:05:20.142Z,4.30
2018-11-20T18:08:04.783Z,4.20
2018-11-20T18:10:51.699Z,4.20
2018-11-20T18:13:27.261Z,4.40
2018-11-20T18:16:20.606Z,4.50
2018-11-20T18:19:05.224Z,4.60
2018-11-20T18:21:50.233Z,4.50
2018-11-20T18:24:47.732Z,4.50
2018-11-20T18:27:43.330Z,4.30
2018-11-20T18:30:26.561Z,4.10
2018-11-20T18:33:15.293Z,4.10
2018-11-20T18:36:07.067Z,4.10
2018-11-20T18:38:52.298Z,4.00
2018-11-20T18:41:51.296Z,4.10
2018-11-20T18:44:50.972Z,4.20
2018-11-20T18:47:47.447Z,4.10
2018-11-20T18:50:34.975Z,4.30
2018-11-20T18:53:11.869Z,4.30
2018-11-20T18:56:03.465Z,4.40
2018-11-20T18:58:46.232Z,4.50
2018-11-20T19:01:39.540Z,4.40
2018-11-20T19:04:37.386Z,4.50
2018-11-20T19:07:23.861Z,4.50
2018-11-20T19:10:26.403Z,4.50
2018-11-20T19:13:09.844Z,4.60
2018-11-20T19:15:54.393Z,4.70
2018-11-20T19:18:40.584Z,4.80
2018-11-20T19:21:40.584Z,4.70
2018-11-20T19:24:26.885Z,4.80
2018-11-20T19:27:25.965Z,4.80
2018-11-20T19:30:10.066Z,4.70
2018-11-20T19:32:56.087Z,4.60
2018-11-20T19:35:42.626Z,4.60
2018-11-20T19:38:28.778Z,4.70
2018-11-20T19:41:18.439Z,4.60
2018-11-20T19:44:06.026Z,4.50
2018-11-20T19:46:53.383Z,4.50
2018-11-20T19:49:30.277Z,4.50
2018-11-20T19:52:16.447Z,4.40
2018-11-20T19:55:02.475Z,4.40
2018-11-20T19:57:49.516Z,4.40
2018-11-20T20:00:35.940Z,4.30
2018-11-20T20:03:26.130Z,4.40
2018-11-20T20:06:17.237Z,4.40
2018-11-20T20:09:07.465Z,4.30
2018-11-20T20:11:58.753Z,4.50
2018-11-20T20:14:33.313Z,4.50
2018-11-20T20:17:36.407Z,4.50
2018-11-20T20:20:30.377Z,4.50
2018-11-20T20:23:28.765Z,4.60
2018-11-20T20:26:23.461Z,4.60
2018-11-20T20:29:10.981Z,4.60
2018-11-20T20:32:09.486Z,4.70
2018-11-20T20:34:53.613Z,4.60
2018-11-20T20:37:38.429Z,4.70
2018-11-20T20:40:37.819Z,4.70
2018-11-20T20:43:34.418Z,4.80
2018-11-20T20:46:37.223Z,4.90
2018-11-20T20:49:37.245Z,5.00
2018-11-20T20:52:29.257Z,4.90
2018-11-20T20:55:22.959Z,5.00
2018-11-20T20:58:01.250Z,5.10
2018-11-20T21:00:58.289Z,5.10
2018-11-20T21:03:45.789Z,5.10
2018-11-20T21:06:38.919Z,5.10
2018-11-20T21:09:27.135Z,5.00
2018-11-20T21:12:17.008Z,4.90
2018-11-20T21:15:08.748Z,4.90
2018-11-20T21:18:00.518Z,4.80
2018-11-20T21:20:43.108Z,4.70
2018-11-20T21:23:34.268Z,4.60
2018-11-20T21:26:11.515Z,4.50
2018-11-20T21:28:52.898Z,4.50
2018-11-20T21:31:39.433Z,4.40
2018-11-20T21:34:20.039Z,4.40
2018-11-20T21:37:10.702Z,4.40
2018-11-20T21:40:03.876Z,4.40
2018-11-20T21:43:00.502Z,4.40
2018-11-20T21:45:46.829Z,4.30
2018-11-20T21:48:33.212Z,4.30
2018-11-20T21:51:28.703Z,4.20
2018-11-20T21:54:18.884Z,4.20
2018-11-20T21:57:09.091Z,4.20
2018-11-20T21:59:59.362Z,4.30
2018-11-20T22:02:45.136Z,4.30
2018-11-20T22:05:31.198Z,4.20
2018-11-20T22:08:18.077Z,4.30
2018-11-20T22:11:17.507Z,4.20
2018-11-20T22:14:02.130Z,4.10
2018-11-20T22:16:48.494Z,4.10
2018-11-20T22:19:34.882Z,4.10
2018-11-20T22:22:32.258Z,4.10
2018-11-20T22:25:25.656Z,4.00
2018-11-20T22:28:13.058Z,3.90
2018-11-20T22:30:47.912Z,3.80
2018-11-20T22:33:32.825Z,3.80
2018-11-20T22:36:08.198Z,3.80
2018-11-20T22:39:04.402Z,3.80
2018-11-20T22:41:58.962Z,3.90
2018-11-20T22:44:51.940Z,3.90
2018-11-20T22:47:38.457Z,3.80
2018-11-20T22:50:24.680Z,3.80
2018-11-20T22:53:21.210Z,3.80
2018-11-20T22:55:59.304Z,3.80
2018-11-20T22:58:38.287Z,3.80
2018-11-20T23:01:24.321Z,3.90
2018-11-20T23:04:12.041Z,4.00
2018-11-20T23:06:59.708Z,4.00
2018-11-20T23:09:27.901Z,4.00
2018-11-20T23:11:56.369Z,4.00
2018-11-20T23:14:24.526Z,3.80
2018-11-20T23:16:52.972Z,3.80
2018-11-20T23:19:21.147Z,3.90
2018-11-20T23:21:49.312Z,4.00
2018-11-20T23:24:17.832Z,4.10
2018-11-20T23:26:46.318Z,4.10
2018-11-20T23:29:14.767Z,4.20
2018-11-20T23:31:43.736Z,4.20
2018-11-20T23:34:11.937Z,4.10
2018-11-20T23:36:40.078Z,4.10
2018-11-20T23:39:09.468Z,4.00
2018-11-20T23:41:37.938Z,3.90
2018-11-20T23:44:06.374Z,3.80
2018-11-20T23:46:35.287Z,3.70
2018-11-20T23:49:03.429Z,3.70
2018-11-20T23:51:31.875Z,3.60
2018-11-20T23:54:00.023Z,3.60
2018-11-20T23:56:28.230Z,3.60
2018-11-20T23:58:56.369Z,3.60
